Time,TemperatureF,DewpointF,PressureIn,WindDirection,WindDirectionDegrees,WindSpeedMPH,WindSpeedGustMPH,Humidity,HourlyPrecipIn,Conditions,Clouds,dailyrainin,SoftwareType,DateUTC
2013-01-08 00:04:00,29.7,-26.8,29.53,SSE,157,0.0,-999.0,7,-99.99,,,0.00,Acu-Link.com,2013-01-08 07:04:00,
2013-01-08 00:19:00,29.3,-33.2,29.52,ESE,112,0.0,-999.0,5,-99.99,,,0.00,Acu-Link.com,2013-01-08 07:19:00,
2013-01-08 00:34:00,28.4,-27.8,29.52,SE,135,0.0,-999.0,7,-99.99,,,0.00,Acu-Link.com,2013-01-08 07:34:00,
2013-01-08 00:50:00,28.8,-25.0,29.53,SW,225,0.0,-999.0,8,-99.99,,,0.00,Acu-Link.com,2013-01-08 07:50:00,
2013-01-08 01:05:00,28.4,-23.1,29.52,East,90,0.0,-999.0,9,-99.99,,,0.00,Acu-Link.com,2013-01-08 08:05:00,
2013-01-08 01:20:00,28.0,-18.0,29.52,East,90,1.1,-999.0,12,-99.99,,,0.00,Acu-Link.com,2013-01-08 08:20:00,
2013-01-08 01:35:00,28.2,-14.8,29.52,ESE,112,0.0,-999.0,14,-99.99,,,0.00,Acu-Link.com,2013-01-08 08:35:00,
2013-01-08 01:51:00,28.8,-8.2,29.53,ESE,112,1.7,-999.0,19,-99.99,,,0.00,Acu-Link.com,2013-01-08 08:51:00,
2013-01-08 02:09:00,28.8,-5.2,29.54,South,180,0.0,-999.0,22,-99.99,,,0.00,Acu-Link.com,2013-01-08 09:09:00,
2013-01-08 02:24:00,28.4,-5.5,29.55,SSW,202,0.0,-999.0,22,-99.99,,,0.00,Acu-Link.com,2013-01-08 09:24:00,
2013-01-08 02:39:00,27.5,-10.4,29.54,South,180,0.0,-999.0,18,-99.99,,,0.00,Acu-Link.com,2013-01-08 09:39:00,
2013-01-08 02:54:00,27.5,-6.3,29.54,ESE,112,1.1,-999.0,22,-99.99,,,0.00,Acu-Link.com,2013-01-08 09:54:00,
2013-01-08 03:09:00,27.5,-5.4,29.53,East,90,3.7,-999.0,23,-99.99,,,0.00,Acu-Link.com,2013-01-08 10:09:00,
2013-01-08 03:25:00,27.7,-1.1,29.56,NE,45,0.0,-999.0,28,-99.99,,,0.00,Acu-Link.com,2013-01-08 10:25:00,
2013-01-08 03:40:00,27.9,2.6,29.55,South,180,0.0,-999.0,33,-99.99,,,0.00,Acu-Link.com,2013-01-08 10:40:00,
2013-01-08 03:55:00,27.9,1.2,29.55,NNW,337,0.0,-999.0,31,-99.99,,,0.00,Acu-Link.com,2013-01-08 10:55:00,
2013-01-08 04:10:00,27.7,2.4,29.56,East,90,0.0,-999.0,33,-99.99,,,0.00,Acu-Link.com,2013-01-08 11:10:00,
2013-01-08 04:26:00,27.5,4.1,29.55,NE,45,0.0,-999.0,36,-99.99,,,0.00,Acu-Link.com,2013-01-08 11:26:00,
2013-01-08 04:41:00,26.8,2.9,29.55,East,90,0.0,-999.0,35,-99.99,,,0.00,Acu-Link.com,2013-01-08 11:41:00,
2013-01-08 04:56:00,26.6,3.9,29.57,East,90,1.7,-999.0,37,-99.99,,,0.00,Acu-Link.com,2013-01-08 11:56:00,
2013-01-08 05:11:00,26.8,5.8,29.59,WNW,292,7.3,-999.0,40,-99.99,,,0.00,Acu-Link.com,2013-01-08 12:11:00,
2013-01-08 05:27:00,27.1,9.1,29.60,West,270,3.7,-999.0,46,-99.99,,,0.00,Acu-Link.com,2013-01-08 12:27:00,
2013-01-08 05:42:00,26.8,9.3,29.61,West,270,1.1,-999.0,47,-99.99,,,0.00,Acu-Link.com,2013-01-08 12:42:00,
2013-01-08 05:57:00,26.2,8.8,29.60,WSW,247,0.0,-999.0,47,-99.99,,,0.00,Acu-Link.com,2013-01-08 12:57:00,
2013-01-08 06:13:00,25.5,7.6,29.62,ESE,112,0.0,-999.0,46,-99.99,,,0.00,Acu-Link.com,2013-01-08 13:13:00,
2013-01-08 06:28:00,25.0,8.1,29.63,ESE,112,0.0,-999.0,48,-99.99,,,0.00,Acu-Link.com,2013-01-08 13:28:00,
2013-01-08 06:43:00,24.4,8.9,29.61,North,0,0.0,-999.0,51,-99.99,,,0.00,Acu-Link.com,2013-01-08 13:43:00,
2013-01-08 06:58:00,24.8,9.7,29.63,West,270,0.0,-999.0,52,-99.99,,,0.00,Acu-Link.com,2013-01-08 13:58:00,
2013-01-08 07:14:00,24.4,8.5,29.62,East,90,0.0,-999.0,50,-99.99,,,0.00,Acu-Link.com,2013-01-08 14:14:00,
2013-01-08 07:29:00,25.2,9.6,29.64,SSE,157,0.0,-999.0,51,-99.99,,,0.00,Acu-Link.com,2013-01-08 14:29:00,
2013-01-08 07:44:00,25.3,9.3,29.65,West,270,1.1,-999.0,50,-99.99,,,0.00,Acu-Link.com,2013-01-08 14:44:00,
2013-01-08 07:59:00,25.7,10.1,29.68,WNW,292,0.0,-999.0,51,-99.99,,,0.00,Acu-Link.com,2013-01-08 14:59:00,
2013-01-08 08:15:00,26.1,10.0,29.69,SSW,202,0.0,-999.0,50,-99.99,,,0.00,Acu-Link.com,2013-01-08 15:15:00,
2013-01-08 08:30:00,26.2,10.1,29.71,West,270,0.0,-999.0,50,-99.99,,,0.00,Acu-Link.com,2013-01-08 15:30:00,
2013-01-08 08:45:00,26.1,10.0,29.70,NNW,337,1.1,-999.0,50,-99.99,,,0.00,Acu-Link.com,2013-01-08 15:45:00,
2013-01-08 09:01:00,25.9,10.7,29.67,NE,45,0.0,-999.0,52,-99.99,,,0.00,Acu-Link.com,2013-01-08 16:01:00,
2013-01-08 09:16:00,29.1,12.4,29.65,East,90,0.0,-999.0,49,-99.99,,,0.00,Acu-Link.com,2013-01-08 16:16:00,
2013-01-08 09:31:00,29.5,11.8,29.65,ESE,112,1.1,-999.0,47,-99.99,,,0.00,Acu-Link.com,2013-01-08 16:31:00,
2013-01-08 09:47:00,30.2,11.9,29.66,East,90,3.2,-999.0,46,-99.99,,,0.00,Acu-Link.com,2013-01-08 16:47:00,
2013-01-08 10:02:00,29.8,12.1,29.66,North,0,1.7,-999.0,47,-99.99,,,0.00,Acu-Link.com,2013-01-08 17:02:00,
2013-01-08 10:17:00,30.2,13.4,29.66,ESE,112,0.0,-999.0,49,-99.99,,,0.00,Acu-Link.com,2013-01-08 17:17:00,
2013-01-08 10:32:00,29.8,13.0,29.67,South,180,0.0,-999.0,49,-99.99,,,0.00,Acu-Link.com,2013-01-08 17:32:00,
2013-01-08 10:48:00,28.9,13.1,29.67,South,180,0.0,-999.0,51,-99.99,,,0.00,Acu-Link.com,2013-01-08 17:48:00,
2013-01-08 11:03:00,29.8,13.5,29.67,West,270,0.0,-999.0,50,-99.99,,,0.00,Acu-Link.com,2013-01-08 18:03:00,
2013-01-08 11:18:00,30.4,13.1,29.64,North,0,0.0,-999.0,48,-99.99,,,0.00,Acu-Link.com,2013-01-08 18:18:00,
2013-01-08 11:34:00,30.6,13.7,29.64,ENE,67,1.7,-999.0,49,-99.99,,,0.00,Acu-Link.com,2013-01-08 18:34:00,
2013-01-08 11:49:00,30.6,13.7,29.65,ESE,112,0.0,-999.0,49,-99.99,,,0.00,Acu-Link.com,2013-01-08 18:49:00,
2013-01-08 12:04:00,29.5,13.6,29.64,ENE,67,7.3,-999.0,51,-99.99,,,0.00,Acu-Link.com,2013-01-08 19:04:00,
2013-01-08 12:19:00,29.5,13.2,29.64,ENE,67,2.2,-999.0,50,-99.99,,,0.00,Acu-Link.com,2013-01-08 19:19:00,
2013-01-08 12:35:00,29.1,12.8,29.64,NNE,22,1.1,-999.0,50,-99.99,,,0.00,Acu-Link.com,2013-01-08 19:35:00,
2013-01-08 12:50:00,29.7,12.9,29.65,ESE,112,2.7,-999.0,49,-99.99,,,0.00,Acu-Link.com,2013-01-08 19:50:00,
2013-01-08 13:05:00,29.5,13.2,29.66,East,90,2.2,-999.0,50,-99.99,,,0.00,Acu-Link.com,2013-01-08 20:05:00,
2013-01-08 13:20:00,30.2,13.4,29.66,ESE,112,1.7,-999.0,49,-99.99,,,0.00,Acu-Link.com,2013-01-08 20:20:00,
2013-01-08 13:36:00,31.3,13.4,29.67,South,180,2.7,-999.0,47,-99.99,,,0.00,Acu-Link.com,2013-01-08 20:36:00,
2013-01-08 13:51:00,32.0,13.6,29.69,West,270,0.0,-999.0,46,-99.99,,,0.00,Acu-Link.com,2013-01-08 20:51:00,
2013-01-08 14:06:00,32.2,13.3,29.71,East,90,1.7,-999.0,45,-99.99,,,0.00,Acu-Link.com,2013-01-08 21:06:00,
2013-01-08 14:22:00,32.7,13.7,29.71,East,90,0.0,-999.0,45,-99.99,,,0.00,Acu-Link.com,2013-01-08 21:22:00,
2013-01-08 14:37:00,32.4,14.0,29.72,ESE,112,0.0,-999.0,46,-99.99,,,0.00,Acu-Link.com,2013-01-08 21:37:00,
2013-01-08 14:52:00,31.6,13.2,29.73,NW,315,0.0,-999.0,46,-99.99,,,0.00,Acu-Link.com,2013-01-08 21:52:00,
2013-01-08 15:08:00,31.1,13.3,29.74,East,90,1.7,-999.0,47,-99.99,,,0.00,Acu-Link.com,2013-01-08 22:08:00,
2013-01-08 15:23:00,30.6,12.8,29.74,East,90,3.2,-999.0,47,-99.99,,,0.00,Acu-Link.com,2013-01-08 22:23:00,
2013-01-08 15:38:00,30.4,12.6,29.76,South,180,1.1,-999.0,47,-99.99,,,0.00,Acu-Link.com,2013-01-08 22:38:00,
2013-01-08 15:53:00,29.8,12.5,29.78,South,180,1.7,-999.0,48,-99.99,,,0.00,Acu-Link.com,2013-01-08 22:53:00,
2013-01-08 16:09:00,29.3,12.5,29.80,West,270,1.1,-999.0,49,-99.99,,,0.00,Acu-Link.com,2013-01-08 23:09:00,
2013-01-08 16:24:00,28.4,12.2,29.80,North,0,0.0,-999.0,50,-99.99,,,0.00,Acu-Link.com,2013-01-08 23:24:00,
2013-01-08 16:39:00,27.7,12.4,29.82,SW,225,0.0,-999.0,52,-99.99,,,0.00,Acu-Link.com,2013-01-08 23:39:00,
2013-01-08 16:55:00,27.0,11.7,29.81,SW,225,0.0,-999.0,52,-99.99,,,0.00,Acu-Link.com,2013-01-08 23:55:00,
2013-01-08 17:10:00,26.4,11.6,29.84,North,0,0.0,-999.0,53,-99.99,,,0.00,Acu-Link.com,2013-01-09 00:10:00,
2013-01-08 17:25:00,25.5,11.2,29.85,WSW,247,0.0,-999.0,54,-99.99,,,0.00,Acu-Link.com,2013-01-09 00:25:00,
2013-01-08 17:41:00,25.0,11.5,29.86,ESE,112,1.1,-999.0,56,-99.99,,,0.00,Acu-Link.com,2013-01-09 00:41:00,
2013-01-08 17:56:00,25.3,11.4,29.87,ESE,112,0.0,-999.0,55,-99.99,,,0.00,Acu-Link.com,2013-01-09 00:56:00,
2013-01-08 18:11:00,25.0,10.7,29.87,ESE,112,0.0,-999.0,54,-99.99,,,0.00,Acu-Link.com,2013-01-09 01:11:00,
2013-01-08 18:26:00,25.0,10.7,29.88,East,90,1.1,-999.0,54,-99.99,,,0.00,Acu-Link.com,2013-01-09 01:26:00,
2013-01-08 18:42:00,24.4,9.8,29.88,SSW,202,0.0,-999.0,53,-99.99,,,0.00,Acu-Link.com,2013-01-09 01:42:00,
2013-01-08 18:57:00,23.7,9.5,29.88,SW,225,0.0,-999.0,54,-99.99,,,0.00,Acu-Link.com,2013-01-09 01:57:00,
2013-01-08 19:12:00,23.2,9.5,29.87,NW,315,0.0,-999.0,55,-99.99,,,0.00,Acu-Link.com,2013-01-09 02:12:00,
2013-01-08 19:28:00,23.9,9.3,29.87,NNE,22,0.0,-999.0,53,-99.99,,,0.00,Acu-Link.com,2013-01-09 02:28:00,
2013-01-08 19:43:00,24.4,8.5,29.87,ENE,67,0.0,-999.0,50,-99.99,,,0.00,Acu-Link.com,2013-01-09 02:43:00,
2013-01-08 19:58:00,25.0,8.1,29.88,NW,315,0.0,-999.0,48,-99.99,,,0.00,Acu-Link.com,2013-01-09 02:58:00,
2013-01-08 20:14:00,26.2,7.8,29.91,East,90,0.0,-999.0,45,-99.99,,,0.00,Acu-Link.com,2013-01-09 03:14:00,
2013-01-08 20:29:00,26.4,8.5,29.92,West,270,0.0,-999.0,46,-99.99,,,0.00,Acu-Link.com,2013-01-09 03:29:00,
2013-01-08 20:44:00,25.5,8.1,29.91,ENE,67,0.0,-999.0,47,-99.99,,,0.00,Acu-Link.com,2013-01-09 03:44:00,
2013-01-08 20:59:00,25.9,8.9,29.92,West,270,1.1,-999.0,48,-99.99,,,0.00,Acu-Link.com,2013-01-09 03:59:00,
2013-01-08 21:15:00,25.0,8.6,29.91,West,270,0.0,-999.0,49,-99.99,,,0.00,Acu-Link.com,2013-01-09 04:15:00,
2013-01-08 21:30:00,24.8,7.9,29.91,SSE,157,0.0,-999.0,48,-99.99,,,0.00,Acu-Link.com,2013-01-09 04:30:00,
2013-01-08 21:45:00,24.6,7.7,29.92,SSW,202,0.0,-999.0,48,-99.99,,,0.00,Acu-Link.com,2013-01-09 04:45:00,
2013-01-08 22:16:00,27.1,8.6,29.93,ESE,112,0.0,-999.0,45,-99.99,,,0.00,Acu-Link.com,2013-01-09 05:16:00,
2013-01-08 22:31:00,28.4,8.3,29.94,WNW,292,0.0,-999.0,42,-99.99,,,0.00,Acu-Link.com,2013-01-09 05:31:00,
2013-01-08 22:47:00,28.9,8.2,29.92,West,270,5.3,-999.0,41,-99.99,,,0.00,Acu-Link.com,2013-01-09 05:47:00,
2013-01-08 23:02:00,29.3,8.6,29.93,NW,315,1.1,-999.0,41,-99.99,,,0.00,Acu-Link.com,2013-01-09 06:02:00,
2013-01-08 23:17:00,29.7,8.4,29.93,NW,315,1.7,-999.0,40,-99.99,,,0.00,Acu-Link.com,2013-01-09 06:17:00,
2013-01-08 23:32:00,29.7,8.4,29.95,West,270,5.8,-999.0,40,-99.99,,,0.00,Acu-Link.com,2013-01-09 06:32:00,
2013-01-08 23:48:00,28.9,8.7,29.95,WSW,247,4.2,-999.0,42,-99.99,,,0.00,Acu-Link.com,2013-01-09 06:48:00,